This is the latest recevied weather packets stored in our database for station/object KC9NPJ-13. If no packets are shown the sender has not sent any weather packets the latest 1 day(s).
| Time | Temp. | Humidity | Pressure | Rain* | Wind** | Luminosity | Snow |
|---|---|---|---|---|---|---|---|
| 1836274662 | 20° C | 82% | 1017.6 hPa | 0 mm | 0 m/s | - | - |
| 1836274512 | 19.44° C | 84% | 1017.6 hPa | 0 mm | 0 m/s | - | - |
| 1836274362 | 20.56° C | 81% | 1017.7 hPa | 0 mm | 0 m/s | - | - |
| 1836274212 | 20° C | 82% | 1017.6 hPa | 0 mm | 0 m/s | - | - |
| 1836274062 | 21.11° C | 80% | 1017.7 hPa | 0 mm | 0 m/s | - | - |
| 1778061837 | 7.78° C | 95% | 1012.6 hPa | 0 mm | 0.89 m/s, 348° | - | - |
| 1778061537 | 7.78° C | 95% | 1012.6 hPa | 0 mm | 0.89 m/s, 10° | - | - |
| 1778061237 | 7.78° C | 95% | 1012.7 hPa | 0 mm | 0.89 m/s, 346° | - | - |
| 1778060937 | 7.78° C | 95% | 1012.5 hPa | 0 mm | 0.89 m/s, 358° | - | - |
| 1778060637 | 7.78° C | 95% | 1012.8 hPa | 0 mm | 0.45 m/s, 348° | - | - |
| 1778060337 | 7.78° C | 95% | 1012.7 hPa | 0 mm | 0.89 m/s, 351° | - | - |
| 1778060037 | 7.78° C | 95% | 1012.5 hPa | 0 mm | 0.45 m/s, 351° | - | - |
| 1778059737 | 7.78° C | 95% | 1012.3 hPa | 0 mm | 0.45 m/s, 349° | - | - |
| 1778059437 | 7.78° C | 95% | 1012.6 hPa | 0 mm | 0 m/s | - | - |
| 1778059137 | 7.78° C | 95% | 1012.6 hPa | 0 mm | 0 m/s | - | - |
| 1778058837 | 7.78° C | 95% | 1012.9 hPa | 0 mm | 0 m/s | - | - |
| 1778058537 | 7.78° C | 95% | 1012.8 hPa | 0.25 mm | 0 m/s | - | - |
| 1778058237 | 7.78° C | 95% | 1012.7 hPa | 0.25 mm | 0 m/s | - | - |
| 1778057937 | 7.78° C | 95% | 1012.7 hPa | 0.25 mm | 0 m/s | - | - |
| 1778057637 | 7.78° C | 95% | 1013 hPa | 0.25 mm | 0 m/s | - | - |
| 1778057338 | 7.22° C | 95% | 1012.8 hPa | 0.25 mm | 0 m/s | - | - |
| 1778057038 | 7.22° C | 95% | 1012.8 hPa | 0.25 mm | 0 m/s | - | - |
| 1778056738 | 7.22° C | 95% | 1012.7 hPa | 0.25 mm | 0 m/s | - | - |
| 1778056438 | 7.22° C | 95% | 1012.5 hPa | 0.25 mm | 0 m/s | - | - |
| 1778056138 | 7.22° C | 95% | 1012.7 hPa | 0.25 mm | 0 m/s | - | - |
* Rain latest hour (hover to see other rain measurements)
** Current wind speed in m/s (hover to see current wind gust speed)